sensor_id;sensor_type;location;lat;lon;timestamp;P1;durP1;ratioP1;P2;durP2;ratioP2
41323;SDS011;27073;51.128;4.220;2023-03-01T00:01:22;9.32;;;6.82;;
41323;SDS011;27073;51.128;4.220;2023-03-01T00:03:50;9.68;;;7.22;;
41323;SDS011;27073;51.128;4.220;2023-03-01T00:06:16;11.05;;;6.85;;
41323;SDS011;27073;51.128;4.220;2023-03-01T00:08:42;11.13;;;6.93;;
41323;SDS011;27073;51.128;4.220;2023-03-01T00:11:10;10.60;;;7.35;;
41323;SDS011;27073;51.128;4.220;2023-03-01T00:13:39;8.40;;;6.50;;
41323;SDS011;27073;51.128;4.220;2023-03-01T00:16:07;10.50;;;6.55;;
41323;SDS011;27073;51.128;4.220;2023-03-01T00:18:35;11.00;;;6.70;;
41323;SDS011;27073;51.128;4.220;2023-03-01T00:21:01;8.43;;;7.05;;
41323;SDS011;27073;51.128;4.220;2023-03-01T00:23:27;10.48;;;7.10;;
41323;SDS011;27073;51.128;4.220;2023-03-01T00:25:53;9.63;;;6.30;;
41323;SDS011;27073;51.128;4.220;2023-03-01T00:28:19;9.45;;;6.53;;
41323;SDS011;27073;51.128;4.220;2023-03-01T00:30:46;7.95;;;6.18;;
41323;SDS011;27073;51.128;4.220;2023-03-01T00:33:12;8.40;;;6.22;;
41323;SDS011;27073;51.128;4.220;2023-03-01T00:35:38;10.68;;;6.70;;
41323;SDS011;27073;51.128;4.220;2023-03-01T00:38:04;7.55;;;5.80;;
41323;SDS011;27073;51.128;4.220;2023-03-01T00:40:30;7.40;;;6.15;;
41323;SDS011;27073;51.128;4.220;2023-03-01T00:42:58;8.32;;;6.43;;
41323;SDS011;27073;51.128;4.220;2023-03-01T00:45:24;8.43;;;6.20;;
41323;SDS011;27073;51.128;4.220;2023-03-01T00:47:50;6.88;;;6.15;;
41323;SDS011;27073;51.128;4.220;2023-03-01T00:50:16;8.63;;;6.50;;
41323;SDS011;27073;51.128;4.220;2023-03-01T00:52:43;7.05;;;5.60;;
41323;SDS011;27073;51.128;4.220;2023-03-01T00:55:09;7.65;;;6.30;;
41323;SDS011;27073;51.128;4.220;2023-03-01T00:57:35;9.85;;;5.97;;
41323;SDS011;27073;51.128;4.220;2023-03-01T01:00:02;7.57;;;5.85;;
41323;SDS011;27073;51.128;4.220;2023-03-01T01:02:29;8.05;;;6.07;;
41323;SDS011;27073;51.128;4.220;2023-03-01T01:04:55;9.30;;;6.30;;
41323;SDS011;27073;51.128;4.220;2023-03-01T01:07:20;10.30;;;7.03;;
41323;SDS011;27073;51.128;4.220;2023-03-01T01:09:46;9.65;;;6.20;;
41323;SDS011;27073;51.128;4.220;2023-03-01T01:12:12;9.75;;;6.63;;
41323;SDS011;27073;51.128;4.220;2023-03-01T01:14:37;10.07;;;7.32;;
41323;SDS011;27073;51.128;4.220;2023-03-01T01:17:04;6.78;;;6.15;;
41323;SDS011;27073;51.128;4.220;2023-03-01T01:19:29;9.75;;;6.80;;
41323;SDS011;27073;51.128;4.220;2023-03-01T01:21:55;9.70;;;7.25;;
41323;SDS011;27073;51.128;4.220;2023-03-01T01:24:21;8.88;;;6.35;;
41323;SDS011;27073;51.128;4.220;2023-03-01T01:26:47;9.18;;;6.20;;
41323;SDS011;27073;51.128;4.220;2023-03-01T01:29:13;9.68;;;6.72;;
41323;SDS011;27073;51.128;4.220;2023-03-01T01:31:40;8.65;;;6.18;;
41323;SDS011;27073;51.128;4.220;2023-03-01T01:34:08;11.10;;;6.63;;
41323;SDS011;27073;51.128;4.220;2023-03-01T01:36:38;7.82;;;6.32;;
41323;SDS011;27073;51.128;4.220;2023-03-01T01:39:03;9.57;;;6.28;;
41323;SDS011;27073;51.128;4.220;2023-03-01T01:41:30;10.90;;;6.28;;
41323;SDS011;27073;51.128;4.220;2023-03-01T01:44:13;7.75;;;6.60;;
41323;SDS011;27073;51.128;4.220;2023-03-01T01:54:59;10.55;;;6.88;;
41323;SDS011;27073;51.128;4.220;2023-03-01T01:57:36;9.73;;;6.68;;
41323;SDS011;27073;51.128;4.220;2023-03-01T02:00:11;11.57;;;6.50;;
41323;SDS011;27073;51.128;4.220;2023-03-01T02:02:42;9.73;;;6.50;;
41323;SDS011;27073;51.128;4.220;2023-03-01T02:05:28;10.30;;;7.63;;
41323;SDS011;27073;51.128;4.220;2023-03-01T02:08:04;9.75;;;6.85;;
41323;SDS011;27073;51.128;4.220;2023-03-01T02:10:31;10.00;;;6.95;;
41323;SDS011;27073;51.128;4.220;2023-03-01T02:13:00;8.95;;;6.93;;
41323;SDS011;27073;51.128;4.220;2023-03-01T02:15:26;9.98;;;6.88;;
41323;SDS011;27073;51.128;4.220;2023-03-01T02:17:56;9.85;;;6.47;;
41323;SDS011;27073;51.128;4.220;2023-03-01T02:23:10;11.10;;;6.70;;
41323;SDS011;27073;51.128;4.220;2023-03-01T02:25:39;11.43;;;6.90;;
41323;SDS011;27073;51.128;4.220;2023-03-01T02:31:03;11.80;;;7.53;;
41323;SDS011;27073;51.128;4.220;2023-03-01T02:33:49;10.45;;;7.70;;
41323;SDS011;27073;51.128;4.220;2023-03-01T02:36:19;11.48;;;7.75;;
41323;SDS011;27073;51.128;4.220;2023-03-01T02:38:48;9.15;;;6.93;;
41323;SDS011;27073;51.128;4.220;2023-03-01T02:41:17;8.68;;;6.70;;
41323;SDS011;27073;51.128;4.220;2023-03-01T02:43:46;11.50;;;7.30;;
41323;SDS011;27073;51.128;4.220;2023-03-01T02:46:16;10.20;;;6.75;;
41323;SDS011;27073;51.128;4.220;2023-03-01T02:48:49;8.98;;;7.25;;
41323;SDS011;27073;51.128;4.220;2023-03-01T02:54:43;7.50;;;6.53;;
41323;SDS011;27073;51.128;4.220;2023-03-01T02:57:10;9.77;;;6.85;;
41323;SDS011;27073;51.128;4.220;2023-03-01T02:59:37;9.48;;;6.97;;
41323;SDS011;27073;51.128;4.220;2023-03-01T03:02:16;9.02;;;6.95;;
41323;SDS011;27073;51.128;4.220;2023-03-01T03:05:14;9.32;;;7.25;;
41323;SDS011;27073;51.128;4.220;2023-03-01T03:07:44;9.98;;;6.90;;
41323;SDS011;27073;51.128;4.220;2023-03-01T03:10:13;7.80;;;6.68;;
41323;SDS011;27073;51.128;4.220;2023-03-01T03:12:40;9.77;;;7.22;;
41323;SDS011;27073;51.128;4.220;2023-03-01T03:15:07;8.95;;;6.68;;
41323;SDS011;27073;51.128;4.220;2023-03-01T03:17:38;10.20;;;7.15;;
41323;SDS011;27073;51.128;4.220;2023-03-01T03:20:05;10.68;;;7.45;;
41323;SDS011;27073;51.128;4.220;2023-03-01T03:22:36;11.10;;;7.40;;
41323;SDS011;27073;51.128;4.220;2023-03-01T03:25:04;9.90;;;7.03;;
41323;SDS011;27073;51.128;4.220;2023-03-01T03:27:35;9.05;;;7.43;;
41323;SDS011;27073;51.128;4.220;2023-03-01T03:30:03;9.45;;;6.93;;
41323;SDS011;27073;51.128;4.220;2023-03-01T03:32:37;9.20;;;7.75;;
41323;SDS011;27073;51.128;4.220;2023-03-01T03:35:03;10.25;;;7.35;;
41323;SDS011;27073;51.128;4.220;2023-03-01T03:37:40;9.13;;;7.10;;
41323;SDS011;27073;51.128;4.220;2023-03-01T03:40:26;11.10;;;7.45;;
41323;SDS011;27073;51.128;4.220;2023-03-01T03:42:52;8.23;;;7.07;;
41323;SDS011;27073;51.128;4.220;2023-03-01T03:45:18;12.57;;;8.23;;
41323;SDS011;27073;51.128;4.220;2023-03-01T03:47:44;11.82;;;7.95;;
41323;SDS011;27073;51.128;4.220;2023-03-01T03:50:10;11.55;;;8.43;;
41323;SDS011;27073;51.128;4.220;2023-03-01T03:52:37;11.35;;;8.45;;
41323;SDS011;27073;51.128;4.220;2023-03-01T03:55:03;9.70;;;7.85;;
41323;SDS011;27073;51.128;4.220;2023-03-01T03:57:39;11.65;;;7.88;;
41323;SDS011;27073;51.128;4.220;2023-03-01T04:00:06;8.82;;;7.88;;
41323;SDS011;27073;51.128;4.220;2023-03-01T04:02:38;12.55;;;7.75;;
41323;SDS011;27073;51.128;4.220;2023-03-01T04:05:05;10.88;;;8.30;;
41323;SDS011;27073;51.128;4.220;2023-03-01T04:07:33;11.00;;;7.65;;
41323;SDS011;27073;51.128;4.220;2023-03-01T04:10:00;10.70;;;8.05;;
41323;SDS011;27073;51.128;4.220;2023-03-01T04:12:26;8.77;;;7.82;;
41323;SDS011;27073;51.128;4.220;2023-03-01T04:14:52;10.43;;;8.15;;
41323;SDS011;27073;51.128;4.220;2023-03-01T04:17:18;13.93;;;8.07;;
41323;SDS011;27073;51.128;4.220;2023-03-01T04:19:44;11.60;;;8.57;;
41323;SDS011;27073;51.128;4.220;2023-03-01T04:22:14;13.50;;;8.50;;
41323;SDS011;27073;51.128;4.220;2023-03-01T04:24:42;13.38;;;8.23;;
41323;SDS011;27073;51.128;4.220;2023-03-01T04:27:08;14.80;;;8.00;;
41323;SDS011;27073;51.128;4.220;2023-03-01T04:29:34;14.15;;;8.00;;
41323;SDS011;27073;51.128;4.220;2023-03-01T04:32:00;10.75;;;7.43;;
41323;SDS011;27073;51.128;4.220;2023-03-01T04:34:26;9.65;;;7.75;;
41323;SDS011;27073;51.128;4.220;2023-03-01T04:36:52;13.00;;;8.60;;
41323;SDS011;27073;51.128;4.220;2023-03-01T04:39:17;9.35;;;7.50;;
41323;SDS011;27073;51.128;4.220;2023-03-01T04:41:43;8.90;;;7.78;;
41323;SDS011;27073;51.128;4.220;2023-03-01T04:44:09;10.15;;;8.63;;
41323;SDS011;27073;51.128;4.220;2023-03-01T04:46:36;12.35;;;8.20;;
41323;SDS011;27073;51.128;4.220;2023-03-01T04:49:02;9.20;;;7.53;;
41323;SDS011;27073;51.128;4.220;2023-03-01T04:51:28;11.13;;;7.60;;
41323;SDS011;27073;51.128;4.220;2023-03-01T04:53:54;12.63;;;8.23;;
41323;SDS011;27073;51.128;4.220;2023-03-01T04:56:20;11.93;;;7.72;;
41323;SDS011;27073;51.128;4.220;2023-03-01T04:58:48;11.00;;;8.10;;
41323;SDS011;27073;51.128;4.220;2023-03-01T05:01:18;13.05;;;7.80;;
41323;SDS011;27073;51.128;4.220;2023-03-01T05:03:48;8.90;;;7.75;;
41323;SDS011;27073;51.128;4.220;2023-03-01T05:06:16;9.20;;;7.47;;
41323;SDS011;27073;51.128;4.220;2023-03-01T05:08:42;9.48;;;7.88;;
41323;SDS011;27073;51.128;4.220;2023-03-01T05:11:09;9.93;;;7.90;;
41323;SDS011;27073;51.128;4.220;2023-03-01T05:13:36;10.13;;;7.95;;
41323;SDS011;27073;51.128;4.220;2023-03-01T05:16:03;8.88;;;7.80;;
41323;SDS011;27073;51.128;4.220;2023-03-01T05:18:31;12.88;;;8.30;;
41323;SDS011;27073;51.128;4.220;2023-03-01T05:21:08;10.63;;;7.95;;
41323;SDS011;27073;51.128;4.220;2023-03-01T05:23:35;10.68;;;7.93;;
41323;SDS011;27073;51.128;4.220;2023-03-01T05:26:03;11.43;;;7.95;;
41323;SDS011;27073;51.128;4.220;2023-03-01T05:28:30;8.95;;;7.93;;
41323;SDS011;27073;51.128;4.220;2023-03-01T05:30:57;12.63;;;9.18;;
41323;SDS011;27073;51.128;4.220;2023-03-01T05:33:23;13.10;;;8.85;;
41323;SDS011;27073;51.128;4.220;2023-03-01T05:35:50;12.65;;;8.18;;
41323;SDS011;27073;51.128;4.220;2023-03-01T05:38:17;12.63;;;8.52;;
41323;SDS011;27073;51.128;4.220;2023-03-01T05:40:44;13.27;;;8.43;;
41323;SDS011;27073;51.128;4.220;2023-03-01T05:43:12;14.68;;;9.07;;
41323;SDS011;27073;51.128;4.220;2023-03-01T05:45:39;15.77;;;8.23;;
41323;SDS011;27073;51.128;4.220;2023-03-01T05:48:06;18.00;;;9.25;;
41323;SDS011;27073;51.128;4.220;2023-03-01T05:50:34;16.95;;;8.70;;
41323;SDS011;27073;51.128;4.220;2023-03-01T05:53:04;13.07;;;8.57;;
41323;SDS011;27073;51.128;4.220;2023-03-01T05:55:42;18.10;;;9.77;;
41323;SDS011;27073;51.128;4.220;2023-03-01T05:58:12;10.75;;;9.00;;
41323;SDS011;27073;51.128;4.220;2023-03-01T06:00:39;17.60;;;9.23;;
41323;SDS011;27073;51.128;4.220;2023-03-01T06:03:05;13.77;;;9.68;;
41323;SDS011;27073;51.128;4.220;2023-03-01T06:05:31;14.60;;;10.55;;
41323;SDS011;27073;51.128;4.220;2023-03-01T06:07:59;14.13;;;10.10;;
41323;SDS011;27073;51.128;4.220;2023-03-01T06:10:25;13.43;;;9.00;;
41323;SDS011;27073;51.128;4.220;2023-03-01T06:12:51;12.48;;;9.50;;
41323;SDS011;27073;51.128;4.220;2023-03-01T06:15:17;17.25;;;9.73;;
41323;SDS011;27073;51.128;4.220;2023-03-01T06:17:44;11.80;;;9.00;;
41323;SDS011;27073;51.128;4.220;2023-03-01T06:22:44;12.32;;;9.52;;
41323;SDS011;27073;51.128;4.220;2023-03-01T06:25:12;14.75;;;10.55;;
41323;SDS011;27073;51.128;4.220;2023-03-01T06:27:40;12.65;;;10.00;;
41323;SDS011;27073;51.128;4.220;2023-03-01T06:30:07;14.93;;;9.52;;
41323;SDS011;27073;51.128;4.220;2023-03-01T06:32:36;28.95;;;13.18;;
41323;SDS011;27073;51.128;4.220;2023-03-01T06:35:16;14.60;;;10.02;;
41323;SDS011;27073;51.128;4.220;2023-03-01T06:37:44;17.20;;;9.90;;
41323;SDS011;27073;51.128;4.220;2023-03-01T06:40:11;11.23;;;9.23;;
41323;SDS011;27073;51.128;4.220;2023-03-01T06:42:40;15.23;;;8.95;;
41323;SDS011;27073;51.128;4.220;2023-03-01T06:45:07;14.25;;;9.10;;
41323;SDS011;27073;51.128;4.220;2023-03-01T06:47:34;13.55;;;8.38;;
41323;SDS011;27073;51.128;4.220;2023-03-01T06:50:00;26.15;;;10.55;;
41323;SDS011;27073;51.128;4.220;2023-03-01T06:52:26;12.73;;;8.20;;
41323;SDS011;27073;51.128;4.220;2023-03-01T06:54:52;12.85;;;8.50;;
41323;SDS011;27073;51.128;4.220;2023-03-01T06:57:18;12.88;;;8.35;;
41323;SDS011;27073;51.128;4.220;2023-03-01T06:59:44;12.05;;;8.73;;
41323;SDS011;27073;51.128;4.220;2023-03-01T07:02:13;12.68;;;8.40;;
41323;SDS011;27073;51.128;4.220;2023-03-01T07:07:05;12.27;;;8.68;;
41323;SDS011;27073;51.128;4.220;2023-03-01T07:09:31;18.85;;;8.27;;
41323;SDS011;27073;51.128;4.220;2023-03-01T07:11:57;18.95;;;8.93;;
41323;SDS011;27073;51.128;4.220;2023-03-01T07:14:23;12.93;;;8.07;;
41323;SDS011;27073;51.128;4.220;2023-03-01T07:16:51;13.32;;;8.60;;
41323;SDS011;27073;51.128;4.220;2023-03-01T07:19:17;13.93;;;8.55;;
41323;SDS011;27073;51.128;4.220;2023-03-01T07:21:43;12.57;;;8.63;;
41323;SDS011;27073;51.128;4.220;2023-03-01T07:24:10;10.73;;;8.93;;
41323;SDS011;27073;51.128;4.220;2023-03-01T07:26:36;12.23;;;9.07;;
41323;SDS011;27073;51.128;4.220;2023-03-01T07:29:03;17.13;;;8.93;;
41323;SDS011;27073;51.128;4.220;2023-03-01T07:31:30;17.02;;;8.43;;
41323;SDS011;27073;51.128;4.220;2023-03-01T07:33:56;12.90;;;9.10;;
41323;SDS011;27073;51.128;4.220;2023-03-01T07:36:22;13.75;;;8.75;;
41323;SDS011;27073;51.128;4.220;2023-03-01T07:38:48;11.50;;;8.02;;
41323;SDS011;27073;51.128;4.220;2023-03-01T07:41:14;13.80;;;7.93;;
41323;SDS011;27073;51.128;4.220;2023-03-01T07:43:40;12.48;;;8.60;;
41323;SDS011;27073;51.128;4.220;2023-03-01T07:46:06;15.13;;;8.95;;
41323;SDS011;27073;51.128;4.220;2023-03-01T07:48:32;13.70;;;8.63;;
41323;SDS011;27073;51.128;4.220;2023-03-01T07:50:59;12.15;;;7.97;;
41323;SDS011;27073;51.128;4.220;2023-03-01T07:53:25;14.88;;;7.70;;
41323;SDS011;27073;51.128;4.220;2023-03-01T07:56:06;13.10;;;8.77;;
41323;SDS011;27073;51.128;4.220;2023-03-01T07:58:37;14.77;;;9.40;;
41323;SDS011;27073;51.128;4.220;2023-03-01T08:01:05;15.80;;;8.75;;
41323;SDS011;27073;51.128;4.220;2023-03-01T08:03:33;13.93;;;8.55;;
41323;SDS011;27073;51.128;4.220;2023-03-01T08:05:59;10.77;;;8.52;;
41323;SDS011;27073;51.128;4.220;2023-03-01T08:08:26;17.13;;;9.50;;
41323;SDS011;27073;51.128;4.220;2023-03-01T08:10:52;14.20;;;8.43;;
41323;SDS011;27073;51.128;4.220;2023-03-01T08:13:21;15.05;;;9.00;;
41323;SDS011;27073;51.128;4.220;2023-03-01T08:15:50;15.07;;;9.00;;
41323;SDS011;27073;51.128;4.220;2023-03-01T08:18:17;11.68;;;8.70;;
41323;SDS011;27073;51.128;4.220;2023-03-01T08:20:43;12.65;;;7.90;;
41323;SDS011;27073;51.128;4.220;2023-03-01T08:23:09;9.48;;;7.90;;
41323;SDS011;27073;51.128;4.220;2023-03-01T08:25:35;11.10;;;8.48;;
41323;SDS011;27073;51.128;4.220;2023-03-01T08:28:01;13.85;;;9.05;;
41323;SDS011;27073;51.128;4.220;2023-03-01T08:30:27;12.82;;;8.50;;
41323;SDS011;27073;51.128;4.220;2023-03-01T08:32:53;12.15;;;8.70;;
41323;SDS011;27073;51.128;4.220;2023-03-01T08:35:20;11.45;;;8.50;;
41323;SDS011;27073;51.128;4.220;2023-03-01T08:37:46;13.98;;;8.65;;
41323;SDS011;27073;51.128;4.220;2023-03-01T08:40:12;13.38;;;8.40;;
41323;SDS011;27073;51.128;4.220;2023-03-01T08:42:39;10.90;;;7.80;;
41323;SDS011;27073;51.128;4.220;2023-03-01T08:45:08;14.05;;;9.40;;
41323;SDS011;27073;51.128;4.220;2023-03-01T08:47:34;12.43;;;9.77;;
41323;SDS011;27073;51.128;4.220;2023-03-01T08:50:00;14.88;;;8.30;;
41323;SDS011;27073;51.128;4.220;2023-03-01T08:52:26;12.25;;;8.70;;
41323;SDS011;27073;51.128;4.220;2023-03-01T08:54:52;12.63;;;8.02;;
41323;SDS011;27073;51.128;4.220;2023-03-01T08:57:19;13.70;;;8.63;;
41323;SDS011;27073;51.128;4.220;2023-03-01T08:59:45;15.30;;;9.15;;
41323;SDS011;27073;51.128;4.220;2023-03-01T09:02:12;14.57;;;8.70;;
41323;SDS011;27073;51.128;4.220;2023-03-01T09:04:39;11.23;;;8.45;;
41323;SDS011;27073;51.128;4.220;2023-03-01T09:07:05;15.10;;;8.20;;
41323;SDS011;27073;51.128;4.220;2023-03-01T09:09:32;9.90;;;8.50;;
41323;SDS011;27073;51.128;4.220;2023-03-01T09:11:57;12.10;;;8.13;;
41323;SDS011;27073;51.128;4.220;2023-03-01T09:14:23;9.88;;;8.10;;
41323;SDS011;27073;51.128;4.220;2023-03-01T09:16:49;11.60;;;8.60;;
41323;SDS011;27073;51.128;4.220;2023-03-01T09:19:15;9.48;;;7.80;;
41323;SDS011;27073;51.128;4.220;2023-03-01T09:21:41;13.20;;;9.57;;
41323;SDS011;27073;51.128;4.220;2023-03-01T09:24:19;14.65;;;10.68;;
41323;SDS011;27073;51.128;4.220;2023-03-01T09:26:48;16.08;;;13.38;;
41323;SDS011;27073;51.128;4.220;2023-03-01T09:29:15;13.95;;;9.18;;
41323;SDS011;27073;51.128;4.220;2023-03-01T09:31:42;9.65;;;7.70;;
41323;SDS011;27073;51.128;4.220;2023-03-01T09:34:08;11.90;;;8.75;;
41323;SDS011;27073;51.128;4.220;2023-03-01T09:36:34;11.70;;;7.30;;
41323;SDS011;27073;51.128;4.220;2023-03-01T09:39:00;14.15;;;8.13;;
41323;SDS011;27073;51.128;4.220;2023-03-01T09:46:56;8.90;;;7.57;;
41323;SDS011;27073;51.128;4.220;2023-03-01T09:49:41;11.00;;;8.48;;
41323;SDS011;27073;51.128;4.220;2023-03-01T09:55:12;9.98;;;8.05;;
41323;SDS011;27073;51.128;4.220;2023-03-01T09:57:47;11.10;;;7.95;;
41323;SDS011;27073;51.128;4.220;2023-03-01T10:03:14;12.77;;;7.68;;
41323;SDS011;27073;51.128;4.220;2023-03-01T10:08:49;10.80;;;8.27;;
41323;SDS011;27073;51.128;4.220;2023-03-01T10:11:22;10.57;;;7.35;;
41323;SDS011;27073;51.128;4.220;2023-03-01T10:19:39;9.40;;;6.88;;
41323;SDS011;27073;51.128;4.220;2023-03-01T10:22:17;9.52;;;6.40;;
41323;SDS011;27073;51.128;4.220;2023-03-01T10:24:53;8.52;;;7.60;;
41323;SDS011;27073;51.128;4.220;2023-03-01T10:27:26;9.55;;;7.35;;
41323;SDS011;27073;51.128;4.220;2023-03-01T10:30:10;10.10;;;7.50;;
41323;SDS011;27073;51.128;4.220;2023-03-01T10:32:41;14.60;;;7.57;;
41323;SDS011;27073;51.128;4.220;2023-03-01T10:35:15;11.80;;;10.20;;
41323;SDS011;27073;51.128;4.220;2023-03-01T10:37:55;13.95;;;9.15;;
41323;SDS011;27073;51.128;4.220;2023-03-01T10:40:33;10.63;;;7.05;;
41323;SDS011;27073;51.128;4.220;2023-03-01T10:43:00;12.55;;;7.10;;
41323;SDS011;27073;51.128;4.220;2023-03-01T10:50:29;11.90;;;6.97;;
41323;SDS011;27073;51.128;4.220;2023-03-01T10:52:56;12.95;;;7.38;;
41323;SDS011;27073;51.128;4.220;2023-03-01T10:55:38;9.57;;;7.10;;
41323;SDS011;27073;51.128;4.220;2023-03-01T11:00:54;10.68;;;7.32;;
41323;SDS011;27073;51.128;4.220;2023-03-01T11:03:26;12.05;;;7.70;;
41323;SDS011;27073;51.128;4.220;2023-03-01T11:05:56;14.32;;;8.15;;
41323;SDS011;27073;51.128;4.220;2023-03-01T11:08:37;21.20;;;14.35;;
41323;SDS011;27073;51.128;4.220;2023-03-01T11:11:04;20.08;;;14.00;;
41323;SDS011;27073;51.128;4.220;2023-03-01T11:13:31;11.00;;;8.90;;
41323;SDS011;27073;51.128;4.220;2023-03-01T11:15:58;12.40;;;7.88;;
41323;SDS011;27073;51.128;4.220;2023-03-01T11:18:25;10.35;;;8.07;;
41323;SDS011;27073;51.128;4.220;2023-03-01T11:20:54;10.95;;;8.85;;
41323;SDS011;27073;51.128;4.220;2023-03-01T11:23:21;10.43;;;7.35;;
41323;SDS011;27073;51.128;4.220;2023-03-01T11:25:50;10.88;;;6.85;;
41323;SDS011;27073;51.128;4.220;2023-03-01T11:28:22;7.78;;;6.55;;
41323;SDS011;27073;51.128;4.220;2023-03-01T11:30:56;11.65;;;7.30;;
41323;SDS011;27073;51.128;4.220;2023-03-01T11:33:47;9.75;;;6.78;;
41323;SDS011;27073;51.128;4.220;2023-03-01T11:36:38;11.18;;;7.32;;
41323;SDS011;27073;51.128;4.220;2023-03-01T11:39:27;12.38;;;7.32;;
41323;SDS011;27073;51.128;4.220;2023-03-01T11:42:12;8.27;;;6.50;;
41323;SDS011;27073;51.128;4.220;2023-03-01T11:45:02;10.07;;;6.50;;
41323;SDS011;27073;51.128;4.220;2023-03-01T11:47:43;7.53;;;6.38;;
41323;SDS011;27073;51.128;4.220;2023-03-01T11:50:28;7.85;;;5.97;;
41323;SDS011;27073;51.128;4.220;2023-03-01T11:53:01;8.20;;;5.88;;
41323;SDS011;27073;51.128;4.220;2023-03-01T11:58:38;9.02;;;5.78;;
41323;SDS011;27073;51.128;4.220;2023-03-01T12:04:14;8.55;;;6.13;;
41323;SDS011;27073;51.128;4.220;2023-03-01T12:12:30;12.07;;;9.73;;
41323;SDS011;27073;51.128;4.220;2023-03-01T12:20:51;8.27;;;7.30;;
41323;SDS011;27073;51.128;4.220;2023-03-01T12:26:42;9.13;;;6.22;;
41323;SDS011;27073;51.128;4.220;2023-03-01T12:29:24;9.60;;;6.63;;
41323;SDS011;27073;51.128;4.220;2023-03-01T12:35:04;8.65;;;5.63;;
41323;SDS011;27073;51.128;4.220;2023-03-01T12:37:45;9.98;;;5.97;;
41323;SDS011;27073;51.128;4.220;2023-03-01T12:50:21;7.63;;;6.07;;
41323;SDS011;27073;51.128;4.220;2023-03-01T12:52:57;6.30;;;4.95;;
41323;SDS011;27073;51.128;4.220;2023-03-01T12:55:36;10.82;;;5.60;;
41323;SDS011;27073;51.128;4.220;2023-03-01T13:00:51;9.98;;;5.40;;
41323;SDS011;27073;51.128;4.220;2023-03-01T13:03:31;9.23;;;5.65;;
41323;SDS011;27073;51.128;4.220;2023-03-01T13:06:19;10.52;;;5.72;;
41323;SDS011;27073;51.128;4.220;2023-03-01T13:11:21;11.60;;;6.20;;
41323;SDS011;27073;51.128;4.220;2023-03-01T13:13:48;8.93;;;5.65;;
41323;SDS011;27073;51.128;4.220;2023-03-01T13:16:41;8.77;;;6.43;;
41323;SDS011;27073;51.128;4.220;2023-03-01T13:19:10;9.68;;;5.95;;
41323;SDS011;27073;51.128;4.220;2023-03-01T13:21:41;7.20;;;5.70;;
41323;SDS011;27073;51.128;4.220;2023-03-01T13:34:49;8.88;;;5.40;;
41323;SDS011;27073;51.128;4.220;2023-03-01T13:37:21;9.45;;;6.43;;
41323;SDS011;27073;51.128;4.220;2023-03-01T13:42:52;11.63;;;6.95;;
41323;SDS011;27073;51.128;4.220;2023-03-01T13:45:20;10.43;;;6.70;;
41323;SDS011;27073;51.128;4.220;2023-03-01T13:47:59;11.30;;;8.32;;
41323;SDS011;27073;51.128;4.220;2023-03-01T13:50:51;16.50;;;12.10;;
41323;SDS011;27073;51.128;4.220;2023-03-01T13:53:24;11.60;;;9.95;;
41323;SDS011;27073;51.128;4.220;2023-03-01T14:01:05;13.40;;;9.65;;
41323;SDS011;27073;51.128;4.220;2023-03-01T14:03:39;14.82;;;9.15;;
41323;SDS011;27073;51.128;4.220;2023-03-01T14:06:08;13.30;;;10.15;;
41323;SDS011;27073;51.128;4.220;2023-03-01T14:08:37;16.65;;;10.55;;
41323;SDS011;27073;51.128;4.220;2023-03-01T14:16:22;16.50;;;12.50;;
41323;SDS011;27073;51.128;4.220;2023-03-01T14:19:29;14.77;;;10.48;;
41323;SDS011;27073;51.128;4.220;2023-03-01T14:24:38;13.20;;;9.05;;
41323;SDS011;27073;51.128;4.220;2023-03-01T14:27:12;16.17;;;10.70;;
41323;SDS011;27073;51.128;4.220;2023-03-01T14:29:39;16.92;;;13.10;;
41323;SDS011;27073;51.128;4.220;2023-03-01T14:32:38;18.65;;;11.52;;
41323;SDS011;27073;51.128;4.220;2023-03-01T14:34:58;13.50;;;11.30;;
41323;SDS011;27073;51.128;4.220;2023-03-01T14:37:32;10.52;;;7.88;;
41323;SDS011;27073;51.128;4.220;2023-03-01T14:40:00;11.15;;;9.10;;
41323;SDS011;27073;51.128;4.220;2023-03-01T14:42:28;10.50;;;7.30;;
41323;SDS011;27073;51.128;4.220;2023-03-01T14:44:59;9.63;;;5.82;;
41323;SDS011;27073;51.128;4.220;2023-03-01T14:47:33;11.75;;;6.18;;
41323;SDS011;27073;51.128;4.220;2023-03-01T14:52:48;9.60;;;5.03;;
41323;SDS011;27073;51.128;4.220;2023-03-01T14:55:16;9.18;;;5.53;;
41323;SDS011;27073;51.128;4.220;2023-03-01T14:57:46;7.25;;;6.15;;
41323;SDS011;27073;51.128;4.220;2023-03-01T15:00:16;9.48;;;5.82;;
41323;SDS011;27073;51.128;4.220;2023-03-01T15:02:46;11.27;;;7.43;;
41323;SDS011;27073;51.128;4.220;2023-03-01T15:05:14;8.55;;;5.50;;
41323;SDS011;27073;51.128;4.220;2023-03-01T15:07:44;8.15;;;5.28;;
41323;SDS011;27073;51.128;4.220;2023-03-01T15:10:19;7.45;;;5.88;;
41323;SDS011;27073;51.128;4.220;2023-03-01T15:12:47;10.00;;;5.57;;
41323;SDS011;27073;51.128;4.220;2023-03-01T15:15:33;7.93;;;5.43;;
41323;SDS011;27073;51.128;4.220;2023-03-01T15:18:05;6.40;;;5.15;;
41323;SDS011;27073;51.128;4.220;2023-03-01T15:20:39;9.35;;;5.18;;
41323;SDS011;27073;51.128;4.220;2023-03-01T15:23:05;9.70;;;5.65;;
41323;SDS011;27073;51.128;4.220;2023-03-01T15:25:31;8.55;;;4.53;;
41323;SDS011;27073;51.128;4.220;2023-03-01T15:27:59;7.45;;;5.53;;
41323;SDS011;27073;51.128;4.220;2023-03-01T15:30:33;7.53;;;4.75;;
41323;SDS011;27073;51.128;4.220;2023-03-01T15:33:18;5.35;;;4.43;;
41323;SDS011;27073;51.128;4.220;2023-03-01T15:35:54;8.95;;;5.35;;
41323;SDS011;27073;51.128;4.220;2023-03-01T15:40:57;7.43;;;5.25;;
41323;SDS011;27073;51.128;4.220;2023-03-01T15:43:40;5.72;;;4.72;;
41323;SDS011;27073;51.128;4.220;2023-03-01T15:46:18;6.85;;;5.20;;
41323;SDS011;27073;51.128;4.220;2023-03-01T15:48:56;7.32;;;5.05;;
41323;SDS011;27073;51.128;4.220;2023-03-01T15:51:42;7.78;;;4.90;;
41323;SDS011;27073;51.128;4.220;2023-03-01T15:54:14;6.07;;;5.10;;
41323;SDS011;27073;51.128;4.220;2023-03-01T15:56:44;6.95;;;5.28;;
41323;SDS011;27073;51.128;4.220;2023-03-01T15:59:10;6.28;;;5.20;;
41323;SDS011;27073;51.128;4.220;2023-03-01T16:01:38;8.60;;;5.55;;
41323;SDS011;27073;51.128;4.220;2023-03-01T16:04:05;8.23;;;5.22;;
41323;SDS011;27073;51.128;4.220;2023-03-01T16:06:30;6.32;;;5.15;;
41323;SDS011;27073;51.128;4.220;2023-03-01T16:08:56;6.75;;;5.43;;
41323;SDS011;27073;51.128;4.220;2023-03-01T16:11:22;8.65;;;5.13;;
41323;SDS011;27073;51.128;4.220;2023-03-01T16:13:48;7.65;;;5.53;;
41323;SDS011;27073;51.128;4.220;2023-03-01T16:16:14;8.50;;;5.68;;
41323;SDS011;27073;51.128;4.220;2023-03-01T16:18:42;7.88;;;5.20;;
41323;SDS011;27073;51.128;4.220;2023-03-01T16:21:11;7.57;;;5.35;;
41323;SDS011;27073;51.128;4.220;2023-03-01T16:23:40;6.90;;;5.25;;
41323;SDS011;27073;51.128;4.220;2023-03-01T16:26:06;7.97;;;5.35;;
41323;SDS011;27073;51.128;4.220;2023-03-01T16:28:33;7.82;;;5.05;;
41323;SDS011;27073;51.128;4.220;2023-03-01T16:30:58;6.30;;;4.97;;
41323;SDS011;27073;51.128;4.220;2023-03-01T16:33:26;6.95;;;5.53;;
41323;SDS011;27073;51.128;4.220;2023-03-01T16:35:52;8.88;;;5.57;;
41323;SDS011;27073;51.128;4.220;2023-03-01T16:38:18;9.13;;;5.63;;
41323;SDS011;27073;51.128;4.220;2023-03-01T16:40:47;7.35;;;5.22;;
41323;SDS011;27073;51.128;4.220;2023-03-01T16:43:14;9.43;;;5.85;;
41323;SDS011;27073;51.128;4.220;2023-03-01T16:45:39;6.63;;;5.10;;
41323;SDS011;27073;51.128;4.220;2023-03-01T16:48:09;8.43;;;5.65;;
41323;SDS011;27073;51.128;4.220;2023-03-01T16:50:35;8.55;;;5.80;;
41323;SDS011;27073;51.128;4.220;2023-03-01T16:53:01;9.50;;;6.07;;
41323;SDS011;27073;51.128;4.220;2023-03-01T16:55:27;7.07;;;5.57;;